KBIS/BIS METAR and TAF weather

Enter ICAO airport designator
Station Type Date Time Source
KBIS METAR 2021/03/05 05:52 UTC NOAA

KBIS 050552Z AUTO 05004KT 4SM BR CLR M01/M01 A3025 RMK AO2 SLP260 T10061011 10144 21011 401721050 51008


Station Type Date Time Source
KBIS Decoded METAR 2021/03/05 05:52 UTC NOAA

BISMARCK MUNICIPAL AIRPORT, ND, United States (KBIS) 46-47N 100-45W 503M
Mar 05, 2021 - 12:52 AM EST / 2021.03.05 0552 UTC
Wind: from the NE (050 degrees) at 5 MPH (4 KT):0
Visibility: 4 mile(s):0
Sky conditions: clear
Weather: mist
Temperature: 30.9 F (-0.6 C)
Windchill: 26 F (-3 C):1
Dew Point: 30.0 F (-1.1 C)
Relative Humidity: 96%
Pressure (altimeter): 30.25 in. Hg (1024 hPa)
Pressure tendency: 0.02 inches (0.8 hPa) higher than three hours ago
ob: KBIS 050552Z AUTO 05004KT 4SM BR CLR M01/M01 A3025 RMK AO2 SLP260 T10061011 10144 21011 401721050 51008
cycle: 6

Station Type Date Time Source
KBIS TAF 2021/03/05 06:30 UTC NOAA

TAF KBIS 050528Z 0506/0606 VRB03KT 4SM BR SKC
FM050900 07005KT 3/4SM BR SCT002
FM051600 11008KT P6SM FEW005

Example: see airport list